createdAt,value
2023-05-04T00:12:59.251Z,6.2
2023-05-04T00:28:33.228Z,5.9
2023-05-04T00:44:07.614Z,5.8
2023-05-04T00:59:41.572Z,5.5
2023-05-04T01:15:15.570Z,5.3
2023-05-04T01:30:49.783Z,5
2023-05-04T01:46:24.092Z,5.2
2023-05-04T02:01:58.444Z,4.8
2023-05-04T02:17:32.965Z,4.6
2023-05-04T02:33:07.119Z,4.4
2023-05-04T02:48:41.208Z,4.3
2023-05-04T03:04:15.548Z,4.1
2023-05-04T03:19:49.525Z,4.1
2023-05-04T03:35:26.612Z,3.9
2023-05-04T03:51:00.592Z,3.9
2023-05-04T04:06:34.709Z,4
2023-05-04T04:22:08.763Z,4.1
2023-05-04T04:37:42.789Z,4.2
2023-05-04T04:53:16.807Z,4.5
2023-05-04T05:08:50.718Z,5.1
2023-05-04T05:24:26.820Z,5.5
2023-05-04T05:40:00.797Z,6.3
2023-05-04T05:55:34.796Z,6.9
2023-05-04T06:11:08.809Z,7.3
2023-05-04T06:26:42.810Z,8
2023-05-04T06:42:17.025Z,8.4
2023-05-04T06:57:51.219Z,9.7
2023-05-04T07:13:25.435Z,10.4
2023-05-04T07:28:59.537Z,11.2
2023-05-04T07:44:33.592Z,12.5
2023-05-04T08:00:08.765Z,13
2023-05-04T08:15:43.075Z,14.1
2023-05-04T08:31:17.412Z,14.8
2023-05-04T08:46:52.036Z,15.5
2023-05-04T09:02:27.078Z,15.8
2023-05-04T09:18:03.742Z,17.1
2023-05-04T09:33:38.001Z,17.8
2023-05-04T09:49:12.393Z,18.2
2023-05-04T10:04:46.612Z,19.1
2023-05-04T10:20:20.757Z,18.8
2023-05-04T10:35:55.281Z,19.5
2023-05-04T10:51:50.523Z,19.5
2023-05-04T11:07:24.863Z,20.2
2023-05-04T11:22:59.031Z,19.5
2023-05-04T11:38:33.381Z,20
2023-05-04T11:54:07.807Z,21.1
2023-05-04T12:09:42.029Z,21.6
2023-05-04T12:25:16.500Z,21.7
2023-05-04T12:40:55.908Z,21.6
2023-05-04T12:56:30.145Z,21.5
2023-05-04T13:12:04.611Z,22
2023-05-04T13:27:39.389Z,22.9
2023-05-04T13:43:13.803Z,22.9
2023-05-04T13:58:48.181Z,22.6
2023-05-04T14:14:22.489Z,22.6
2023-05-04T14:29:56.785Z,22.3
2023-05-04T14:45:31.105Z,22.5
2023-05-04T15:01:05.420Z,22.3
2023-05-04T15:16:39.890Z,21.9
2023-05-04T15:32:14.314Z,22.2
2023-05-04T15:47:48.716Z,22
2023-05-04T16:03:23.785Z,21.9
2023-05-04T16:18:58.134Z,21.9
2023-05-04T16:34:32.319Z,21.5
2023-05-04T16:50:07.538Z,21.6
2023-05-04T17:05:41.904Z,21.2
2023-05-04T17:21:16.093Z,20.5
2023-05-04T17:36:50.217Z,19.5
2023-05-04T17:52:24.335Z,19.2
2023-05-04T18:07:58.456Z,18.7
2023-05-04T18:23:32.647Z,18.2
2023-05-04T18:39:06.843Z,17.5
2023-05-04T18:54:41.038Z,16.8
2023-05-04T19:10:15.141Z,16.1
2023-05-04T19:26:01.264Z,15.7
2023-05-04T19:41:35.343Z,15.3
2023-05-04T19:57:09.439Z,15
2023-05-04T20:12:43.727Z,14.6
2023-05-04T20:28:17.891Z,14.3
2023-05-04T20:43:51.919Z,13.9
2023-05-04T20:59:25.976Z,13.4
2023-05-04T21:15:00.038Z,13.1
2023-05-04T21:30:34.506Z,13
2023-05-04T21:46:08.566Z,12.8
2023-05-04T22:01:42.704Z,12.5
2023-05-04T22:17:16.756Z,12.1
2023-05-04T22:32:50.955Z,11.7
2023-05-04T22:48:25.079Z,11.3
2023-05-04T23:03:59.325Z,11
2023-05-04T23:19:33.465Z,10.7
2023-05-04T23:35:07.516Z,10.4
2023-05-04T23:50:41.524Z,10.1
